Date,TemperatureHighF,TemperatureAvgF,TemperatureLowF,DewpointHighF,DewpointAvgF,DewpointLowF,HumidityHigh,HumidityAvg,HumidityLow,PressureMaxIn,PressureMinIn,WindSpeedMaxMPH,WindSpeedAvgMPH,GustSpeedMaxMPH,PrecipitationSumIn
2014-1-8,60,50,43,33,28,25,58,42,29,30.07,29.97,0,0,1,0.00
2014-1-9,69,52,45,34,29,26,57,44,25,30.01,29.89,1,0,6,0.00
2014-1-10,71,50,41,34,31,28,63,48,26,30.07,29.98,0,0,0,0.00
2014-1-11,69,53,44,38,31,-100,65,47,27,30.14,29.96,6,0,12,0.00
2014-1-12,75,59,47,41,35,24,64,43,25,30.15,29.90,5,0,13,0.00
2014-1-13,69,57,50,27,23,20,32,27,20,30.32,30.16,5,0,12,0.00
2014-1-14,55,52,48,25,24,23,39,34,30,30.24,30.23,0,0,2,0.00
2014-1-17,74,60,55,30,24,20,30,25,19,30.12,30.01,5,1,12,0.00
2014-1-18,75,56,47,31,22,-100,42,29,17,30.08,29.99,5,1,12,0.00
2014-1-19,69,56,49,32,27,23,44,33,22,30.11,30.01,5,1,12,0.00
2014-1-20,78,54,45,32,28,23,57,39,15,30.13,30.03,6,2,10,0.00
2014-1-21,76,60,48,32,27,23,46,30,16,30.16,30.01,7,3,15,0.00
2014-1-22,80,60,52,29,24,19,34,26,10,30.01,29.80,3,1,5,0.00
2014-1-23,75,59,43,34,28,23,59,33,14,29.97,29.82,10,2,12,0.00
2014-2-21,70,61,57,29,23,18,29,23,20,29.98,29.83,3,0,12,0.00
2014-2-22,70,55,48,35,25,-100,46,34,27,29.87,29.79,1,0,3,0.00
2014-2-23,78,62,50,38,33,30,50,35,23,29.93,29.83,2,0,6,0.00
2014-2-24,79,64,51,41,37,32,52,37,25,29.94,29.83,0,0,6,0.00
2014-2-25,78,67,56,49,44,38,57,44,31,29.91,29.84,2,0,7,0.00
2014-2-26,80,66,52,52,46,43,73,52,31,29.95,29.81,4,0,9,0.00
2014-2-27,66,62,58,49,47,45,64,57,52,29.91,29.87,5,0,5,0.00
2014-2-28,82,72,61,58,52,46,69,51,33,29.77,29.62,7,3,20,0.01
2014-3-1,76,65,58,55,47,-100,71,57,38,29.88,29.71,6,1,14,0.04
2014-3-2,72,62,51,50,45,42,74,54,36,30.07,29.90,4,0,10,0.02
2014-3-3,77,66,52,48,44,43,73,48,31,30.03,29.90,6,1,12,0.00
2014-3-4,81,65,54,46,44,42,64,48,28,29.92,29.79,1,0,5,0.00
2014-3-5,87,72,55,45,41,39,58,36,20,30.00,29.87,8,1,13,0.00
2014-3-30,82,70,64,46,39,33,45,33,17,29.85,29.77,8,2,17,0.00
2014-3-31,80,66,55,43,38,28,57,38,15,29.92,29.77,5,1,12,0.00
2014-4-1,76,63,54,46,36,-100,53,38,28,29.90,29.78,11,4,19,0.00
2014-4-2,71,61,52,40,36,30,57,40,22,29.94,29.83,13,5,22,0.00
2014-4-3,77,61,48,39,34,31,56,38,21,30.05,29.91,2,0,9,0.00
2014-4-4,81,64,50,37,33,29,47,33,18,29.93,29.74,9,1,15,0.00
2014-4-5,72,62,54,39,33,29,42,34,27,29.88,29.77,8,2,16,0.00
2014-4-21,94,77,66,51,44,41,43,32,19,29.92,29.76,3,0,9,0.00
2014-4-22,96,80,70,48,41,32,36,25,16,29.76,29.63,9,2,18,0.00
2014-4-23,79,68,60,36,33,29,40,29,16,29.80,29.70,6,0,13,0.00
2014-4-24,84,69,61,39,33,28,33,26,18,29.87,29.74,3,0,12,0.00
2014-4-25,90,75,62,53,42,31,45,32,18,29.75,29.61,11,2,20,0.00
2014-4-26,76,66,61,44,37,-100,51,36,26,29.84,29.60,17,6,32,0.00
2014-4-27,82,69,54,43,40,36,56,37,22,29.88,29.76,5,1,12,0.00
2014-5-28,100,100,100,34,34,34,10,10,10,29.79,29.79,0,0,0,0.00
2014-6-20,97,97,97,43,43,43,16,16,16,29.73,29.73,0,0,0,0.00